sensor_id;sensor_type;location;lat;lon;timestamp;pressure;altitude;pressure_sealevel;temperature;humidity
4705;BME280;2366;51.332;6.610;2023-12-04T00:01:21;101298.25;;;3.45;72.78
4705;BME280;2366;51.332;6.610;2023-12-04T00:03:46;101296.16;;;3.60;73.64
4705;BME280;2366;51.332;6.610;2023-12-04T00:06:12;101290.81;;;3.25;73.87
4705;BME280;2366;51.332;6.610;2023-12-04T00:08:37;101282.78;;;3.70;74.55
4705;BME280;2366;51.332;6.610;2023-12-04T00:11:04;101286.22;;;3.37;70.83
4705;BME280;2366;51.332;6.610;2023-12-04T00:13:29;101272.19;;;3.38;72.76
4705;BME280;2366;51.332;6.610;2023-12-04T00:15:55;101272.97;;;3.43;71.67
4705;BME280;2366;51.332;6.610;2023-12-04T00:18:20;101266.84;;;3.42;71.72
4705;BME280;2366;51.332;6.610;2023-12-04T00:20:45;101269.28;;;3.50;71.13
4705;BME280;2366;51.332;6.610;2023-12-04T00:23:11;101273.91;;;3.78;73.30
4705;BME280;2366;51.332;6.610;2023-12-04T00:25:36;101261.22;;;3.59;73.89
4705;BME280;2366;51.332;6.610;2023-12-04T00:28:02;101267.00;;;3.74;72.90
4705;BME280;2366;51.332;6.610;2023-12-04T00:30:27;101266.94;;;3.75;71.94
4705;BME280;2366;51.332;6.610;2023-12-04T00:32:53;101263.59;;;3.68;71.81
4705;BME280;2366;51.332;6.610;2023-12-04T00:35:18;101255.88;;;3.98;70.84
4705;BME280;2366;51.332;6.610;2023-12-04T00:37:43;101258.06;;;3.45;71.35
4705;BME280;2366;51.332;6.610;2023-12-04T00:40:09;101255.22;;;3.54;69.49
4705;BME280;2366;51.332;6.610;2023-12-04T00:42:34;101247.50;;;3.84;70.85
4705;BME280;2366;51.332;6.610;2023-12-04T00:45:01;101256.34;;;3.80;70.14
4705;BME280;2366;51.332;6.610;2023-12-04T00:47:27;101247.22;;;3.95;70.17
4705;BME280;2366;51.332;6.610;2023-12-04T00:49:52;101243.97;;;3.85;69.56
4705;BME280;2366;51.332;6.610;2023-12-04T00:52:18;101249.25;;;3.83;69.44
4705;BME280;2366;51.332;6.610;2023-12-04T00:54:43;101246.50;;;3.88;71.70
4705;BME280;2366;51.332;6.610;2023-12-04T00:57:09;101242.19;;;3.87;69.29
4705;BME280;2366;51.332;6.610;2023-12-04T00:59:34;101239.16;;;4.02;73.22
4705;BME280;2366;51.332;6.610;2023-12-04T01:02:00;101234.75;;;4.04;73.61
4705;BME280;2366;51.332;6.610;2023-12-04T01:04:25;101236.44;;;3.34;70.04
4705;BME280;2366;51.332;6.610;2023-12-04T01:06:51;101235.94;;;3.55;71.74
4705;BME280;2366;51.332;6.610;2023-12-04T01:09:17;101228.41;;;3.41;67.88
4705;BME280;2366;51.332;6.610;2023-12-04T01:11:42;101224.13;;;3.75;70.50
4705;BME280;2366;51.332;6.610;2023-12-04T01:14:08;101222.47;;;3.35;67.39
4705;BME280;2366;51.332;6.610;2023-12-04T01:16:33;101218.72;;;3.81;70.47
4705;BME280;2366;51.332;6.610;2023-12-04T01:18:59;101215.44;;;3.37;67.27
4705;BME280;2366;51.332;6.610;2023-12-04T01:21:24;101208.59;;;3.67;71.25
4705;BME280;2366;51.332;6.610;2023-12-04T01:23:49;101216.72;;;3.56;68.78
4705;BME280;2366;51.332;6.610;2023-12-04T01:26:15;101209.34;;;3.35;68.90
4705;BME280;2366;51.332;6.610;2023-12-04T01:28:40;101199.69;;;3.73;69.87
4705;BME280;2366;51.332;6.610;2023-12-04T01:31:06;101201.09;;;3.86;71.22
4705;BME280;2366;51.332;6.610;2023-12-04T01:33:31;101208.81;;;3.92;68.95
4705;BME280;2366;51.332;6.610;2023-12-04T01:35:57;101197.41;;;3.59;68.12
4705;BME280;2366;51.332;6.610;2023-12-04T01:38:22;101200.84;;;3.62;70.67
4705;BME280;2366;51.332;6.610;2023-12-04T01:40:47;101196.22;;;3.36;67.90
4705;BME280;2366;51.332;6.610;2023-12-04T01:43:13;101198.78;;;3.74;70.58
4705;BME280;2366;51.332;6.610;2023-12-04T01:45:38;101189.53;;;3.59;68.25
4705;BME280;2366;51.332;6.610;2023-12-04T01:48:04;101191.91;;;3.69;71.97
4705;BME280;2366;51.332;6.610;2023-12-04T01:50:32;101192.25;;;3.56;73.24
4705;BME280;2366;51.332;6.610;2023-12-04T01:52:58;101191.44;;;3.54;70.02
4705;BME280;2366;51.332;6.610;2023-12-04T01:55:23;101187.75;;;3.61;71.33
4705;BME280;2366;51.332;6.610;2023-12-04T01:57:49;101183.13;;;3.70;69.88
4705;BME280;2366;51.332;6.610;2023-12-04T02:00:14;101185.00;;;3.65;70.99
4705;BME280;2366;51.332;6.610;2023-12-04T02:02:40;101177.97;;;3.67;69.86
4705;BME280;2366;51.332;6.610;2023-12-04T02:05:08;101170.53;;;3.49;70.16
4705;BME280;2366;51.332;6.610;2023-12-04T02:07:34;101174.50;;;3.65;72.98
4705;BME280;2366;51.332;6.610;2023-12-04T02:10:02;101175.91;;;3.79;72.46
4705;BME280;2366;51.332;6.610;2023-12-04T02:12:28;101176.97;;;3.73;70.20
4705;BME280;2366;51.332;6.610;2023-12-04T02:14:53;101176.06;;;3.73;70.77
4705;BME280;2366;51.332;6.610;2023-12-04T02:17:19;101173.56;;;4.02;70.40
4705;BME280;2366;51.332;6.610;2023-12-04T02:19:46;101175.13;;;3.41;67.10
4705;BME280;2366;51.332;6.610;2023-12-04T02:22:11;101170.66;;;3.79;69.52
4705;BME280;2366;51.332;6.610;2023-12-04T02:24:37;101173.66;;;3.99;69.35
4705;BME280;2366;51.332;6.610;2023-12-04T02:27:20;101168.69;;;3.54;65.90
4705;BME280;2366;51.332;6.610;2023-12-04T02:29:53;101166.06;;;3.88;69.02
4705;BME280;2366;51.332;6.610;2023-12-04T02:32:23;101155.34;;;3.96;70.83
4705;BME280;2366;51.332;6.610;2023-12-04T02:34:50;101150.44;;;3.84;69.67
4705;BME280;2366;51.332;6.610;2023-12-04T02:37:17;101144.16;;;3.55;64.21
4705;BME280;2366;51.332;6.610;2023-12-04T02:39:44;101138.13;;;3.86;71.10
4705;BME280;2366;51.332;6.610;2023-12-04T02:42:11;101139.25;;;4.10;70.20
4705;BME280;2366;51.332;6.610;2023-12-04T02:44:38;101136.38;;;3.86;64.44
4705;BME280;2366;51.332;6.610;2023-12-04T02:47:04;101136.31;;;4.21;69.53
4705;BME280;2366;51.332;6.610;2023-12-04T02:49:29;101141.38;;;4.27;68.58
4705;BME280;2366;51.332;6.610;2023-12-04T02:51:55;101130.31;;;4.16;65.09
4705;BME280;2366;51.332;6.610;2023-12-04T02:54:20;101123.97;;;4.23;66.25
4705;BME280;2366;51.332;6.610;2023-12-04T02:56:45;101113.47;;;3.93;63.39
4705;BME280;2366;51.332;6.610;2023-12-04T02:59:11;101119.19;;;4.39;65.51
4705;BME280;2366;51.332;6.610;2023-12-04T03:01:36;101111.13;;;3.49;62.63
4705;BME280;2366;51.332;6.610;2023-12-04T03:04:01;101110.00;;;3.93;63.65
4705;BME280;2366;51.332;6.610;2023-12-04T03:06:27;101105.25;;;3.73;63.94
4705;BME280;2366;51.332;6.610;2023-12-04T03:08:52;101094.75;;;3.73;63.47
4705;BME280;2366;51.332;6.610;2023-12-04T03:11:18;101100.25;;;3.96;62.21
4705;BME280;2366;51.332;6.610;2023-12-04T03:13:43;101090.00;;;3.87;61.61
4705;BME280;2366;51.332;6.610;2023-12-04T03:16:15;101096.66;;;3.67;61.29
4705;BME280;2366;51.332;6.610;2023-12-04T03:18:42;101088.38;;;3.50;61.35
4705;BME280;2366;51.332;6.610;2023-12-04T03:21:07;101087.66;;;3.78;60.43
4705;BME280;2366;51.332;6.610;2023-12-04T03:23:32;101081.16;;;3.91;62.56
4705;BME280;2366;51.332;6.610;2023-12-04T03:25:58;101079.56;;;3.85;62.25
4705;BME280;2366;51.332;6.610;2023-12-04T03:28:23;101079.78;;;3.78;61.22
4705;BME280;2366;51.332;6.610;2023-12-04T03:30:49;101080.50;;;3.83;59.87
4705;BME280;2366;51.332;6.610;2023-12-04T03:33:14;101075.66;;;3.69;59.84
4705;BME280;2366;51.332;6.610;2023-12-04T03:35:39;101070.72;;;3.88;60.56
4705;BME280;2366;51.332;6.610;2023-12-04T03:38:05;101064.75;;;3.83;60.46
4705;BME280;2366;51.332;6.610;2023-12-04T03:40:31;101064.09;;;3.75;59.10
4705;BME280;2366;51.332;6.610;2023-12-04T03:42:56;101064.38;;;3.97;60.39
4705;BME280;2366;51.332;6.610;2023-12-04T03:45:22;101059.94;;;3.67;58.47
4705;BME280;2366;51.332;6.610;2023-12-04T03:47:47;101058.38;;;3.93;59.91
4705;BME280;2366;51.332;6.610;2023-12-04T03:50:12;101043.38;;;3.97;59.83
4705;BME280;2366;51.332;6.610;2023-12-04T03:52:38;101053.84;;;3.98;59.94
4705;BME280;2366;51.332;6.610;2023-12-04T03:55:04;101050.16;;;3.73;58.89
4705;BME280;2366;51.332;6.610;2023-12-04T03:57:29;101052.66;;;3.77;59.12
4705;BME280;2366;51.332;6.610;2023-12-04T03:59:55;101044.06;;;4.03;59.25
4705;BME280;2366;51.332;6.610;2023-12-04T04:02:20;101044.03;;;4.05;58.58
4705;BME280;2366;51.332;6.610;2023-12-04T04:04:45;101050.59;;;3.57;57.79
4705;BME280;2366;51.332;6.610;2023-12-04T04:07:11;101039.31;;;3.86;57.59
4705;BME280;2366;51.332;6.610;2023-12-04T04:09:36;101039.63;;;3.76;58.04
4705;BME280;2366;51.332;6.610;2023-12-04T04:12:02;101044.47;;;3.58;58.68
4705;BME280;2366;51.332;6.610;2023-12-04T04:14:28;101035.28;;;4.04;57.52
4705;BME280;2366;51.332;6.610;2023-12-04T04:16:53;101034.41;;;3.74;57.55
4705;BME280;2366;51.332;6.610;2023-12-04T04:19:18;101023.81;;;3.46;57.51
4705;BME280;2366;51.332;6.610;2023-12-04T04:21:44;101024.56;;;3.82;57.46
4705;BME280;2366;51.332;6.610;2023-12-04T04:24:09;101017.13;;;3.97;56.97
4705;BME280;2366;51.332;6.610;2023-12-04T04:26:35;101027.56;;;3.68;57.03
4705;BME280;2366;51.332;6.610;2023-12-04T04:29:00;101011.56;;;3.78;56.92
4705;BME280;2366;51.332;6.610;2023-12-04T04:31:26;101008.56;;;3.91;56.31
4705;BME280;2366;51.332;6.610;2023-12-04T04:33:51;101011.31;;;3.87;56.59
4705;BME280;2366;51.332;6.610;2023-12-04T04:36:17;101017.13;;;3.97;56.52
4705;BME280;2366;51.332;6.610;2023-12-04T04:38:42;101016.31;;;4.24;56.19
4705;BME280;2366;51.332;6.610;2023-12-04T04:41:13;101014.66;;;3.92;56.16
4705;BME280;2366;51.332;6.610;2023-12-04T04:43:39;101005.75;;;4.27;56.09
4705;BME280;2366;51.332;6.610;2023-12-04T04:46:04;101004.78;;;4.00;55.61
4705;BME280;2366;51.332;6.610;2023-12-04T04:48:30;101001.63;;;4.19;55.52
4705;BME280;2366;51.332;6.610;2023-12-04T04:50:55;101002.25;;;4.27;55.13
4705;BME280;2366;51.332;6.610;2023-12-04T04:53:20;100997.47;;;3.82;55.55
4705;BME280;2366;51.332;6.610;2023-12-04T04:55:46;100990.31;;;3.87;54.71
4705;BME280;2366;51.332;6.610;2023-12-04T04:58:11;101002.16;;;4.00;55.48
4705;BME280;2366;51.332;6.610;2023-12-04T05:00:37;100989.84;;;3.73;55.28
4705;BME280;2366;51.332;6.610;2023-12-04T05:03:02;100988.09;;;3.73;55.93
4705;BME280;2366;51.332;6.610;2023-12-04T05:05:28;100990.13;;;3.63;55.70
4705;BME280;2366;51.332;6.610;2023-12-04T05:07:53;100976.19;;;3.93;55.06
4705;BME280;2366;51.332;6.610;2023-12-04T05:10:18;100964.41;;;4.06;54.86
4705;BME280;2366;51.332;6.610;2023-12-04T05:12:44;100968.38;;;3.89;54.85
4705;BME280;2366;51.332;6.610;2023-12-04T05:15:09;100980.00;;;3.81;54.89
4705;BME280;2366;51.332;6.610;2023-12-04T05:17:34;100967.38;;;3.64;55.54
4705;BME280;2366;51.332;6.610;2023-12-04T05:20:00;100969.34;;;3.87;55.01
4705;BME280;2366;51.332;6.610;2023-12-04T05:22:25;100969.78;;;3.72;54.75
4705;BME280;2366;51.332;6.610;2023-12-04T05:24:51;100962.09;;;3.95;54.90
4705;BME280;2366;51.332;6.610;2023-12-04T05:27:16;100959.63;;;3.59;55.66
4705;BME280;2366;51.332;6.610;2023-12-04T05:29:41;100953.41;;;3.93;54.86
4705;BME280;2366;51.332;6.610;2023-12-04T05:32:07;100962.34;;;3.86;54.98
4705;BME280;2366;51.332;6.610;2023-12-04T05:34:32;100958.31;;;3.76;54.58
4705;BME280;2366;51.332;6.610;2023-12-04T05:36:57;100958.47;;;3.99;55.15
4705;BME280;2366;51.332;6.610;2023-12-04T05:39:23;100962.38;;;4.14;55.25
4705;BME280;2366;51.332;6.610;2023-12-04T05:41:48;100962.00;;;3.98;54.98
4705;BME280;2366;51.332;6.610;2023-12-04T05:44:13;100966.00;;;3.82;55.96
4705;BME280;2366;51.332;6.610;2023-12-04T05:46:39;100954.06;;;4.01;55.64
4705;BME280;2366;51.332;6.610;2023-12-04T05:49:04;100951.13;;;3.51;54.85
4705;BME280;2366;51.332;6.610;2023-12-04T05:51:30;100957.53;;;3.72;55.89
4705;BME280;2366;51.332;6.610;2023-12-04T05:53:55;100952.88;;;3.82;56.19
4705;BME280;2366;51.332;6.610;2023-12-04T05:56:21;100957.47;;;3.74;55.92
4705;BME280;2366;51.332;6.610;2023-12-04T05:58:46;100962.84;;;3.99;55.23
4705;BME280;2366;51.332;6.610;2023-12-04T06:01:11;100949.31;;;3.84;55.87
4705;BME280;2366;51.332;6.610;2023-12-04T06:03:37;100949.81;;;3.66;56.20
4705;BME280;2366;51.332;6.610;2023-12-04T06:06:02;100950.22;;;4.11;55.13
4705;BME280;2366;51.332;6.610;2023-12-04T06:08:28;100947.41;;;4.18;55.63
4705;BME280;2366;51.332;6.610;2023-12-04T06:10:53;100932.94;;;3.76;55.60
4705;BME280;2366;51.332;6.610;2023-12-04T06:13:18;100929.75;;;4.23;54.93
4705;BME280;2366;51.332;6.610;2023-12-04T06:15:44;100934.13;;;4.22;54.60
4705;BME280;2366;51.332;6.610;2023-12-04T06:18:09;100932.19;;;4.29;54.73
4705;BME280;2366;51.332;6.610;2023-12-04T06:20:35;100928.66;;;4.57;54.39
4705;BME280;2366;51.332;6.610;2023-12-04T06:23:00;100916.53;;;4.52;55.00
4705;BME280;2366;51.332;6.610;2023-12-04T06:25:26;100924.59;;;4.20;55.08
4705;BME280;2366;51.332;6.610;2023-12-04T06:27:52;100921.06;;;4.49;54.46
4705;BME280;2366;51.332;6.610;2023-12-04T06:30:18;100911.66;;;4.68;53.94
4705;BME280;2366;51.332;6.610;2023-12-04T06:32:43;100914.19;;;4.45;54.03
4705;BME280;2366;51.332;6.610;2023-12-04T06:35:09;100900.16;;;4.44;53.84
4705;BME280;2366;51.332;6.610;2023-12-04T06:37:38;100900.28;;;4.41;54.06
4705;BME280;2366;51.332;6.610;2023-12-04T06:40:05;100895.09;;;4.11;55.39
4705;BME280;2366;51.332;6.610;2023-12-04T06:42:34;100892.09;;;3.96;55.41
4705;BME280;2366;51.332;6.610;2023-12-04T06:45:00;100889.31;;;4.28;54.90
4705;BME280;2366;51.332;6.610;2023-12-04T06:47:25;100889.00;;;4.11;54.92
4705;BME280;2366;51.332;6.610;2023-12-04T06:49:51;100878.28;;;4.45;54.50
4705;BME280;2366;51.332;6.610;2023-12-04T06:52:16;100886.88;;;4.22;54.76
4705;BME280;2366;51.332;6.610;2023-12-04T06:54:42;100875.06;;;4.36;54.48
4705;BME280;2366;51.332;6.610;2023-12-04T06:57:07;100884.72;;;4.62;53.98
4705;BME280;2366;51.332;6.610;2023-12-04T06:59:33;100882.75;;;4.42;54.62
4705;BME280;2366;51.332;6.610;2023-12-04T07:01:58;100868.91;;;4.38;54.57
4705;BME280;2366;51.332;6.610;2023-12-04T07:04:23;100865.59;;;4.31;54.98
4705;BME280;2366;51.332;6.610;2023-12-04T07:06:49;100862.41;;;4.48;54.00
4705;BME280;2366;51.332;6.610;2023-12-04T07:09:15;100866.59;;;4.54;53.88
4705;BME280;2366;51.332;6.610;2023-12-04T07:11:42;100871.22;;;4.47;54.47
4705;BME280;2366;51.332;6.610;2023-12-04T07:14:07;100853.59;;;4.76;53.54
4705;BME280;2366;51.332;6.610;2023-12-04T07:16:41;100857.34;;;4.42;54.10
4705;BME280;2366;51.332;6.610;2023-12-04T07:19:08;100854.34;;;4.80;53.60
4705;BME280;2366;51.332;6.610;2023-12-04T07:21:34;100848.00;;;4.85;53.32
4705;BME280;2366;51.332;6.610;2023-12-04T07:23:59;100842.31;;;4.72;53.94
4705;BME280;2366;51.332;6.610;2023-12-04T07:26:24;100843.75;;;5.06;53.06
4705;BME280;2366;51.332;6.610;2023-12-04T07:28:50;100844.31;;;4.91;53.53
4705;BME280;2366;51.332;6.610;2023-12-04T07:31:15;100844.28;;;4.41;54.36
4705;BME280;2366;51.332;6.610;2023-12-04T07:33:40;100844.41;;;4.88;53.64
4705;BME280;2366;51.332;6.610;2023-12-04T07:36:06;100847.78;;;4.91;53.04
4705;BME280;2366;51.332;6.610;2023-12-04T07:38:32;100846.44;;;5.05;52.92
4705;BME280;2366;51.332;6.610;2023-12-04T07:40:57;100842.06;;;4.80;53.56
4705;BME280;2366;51.332;6.610;2023-12-04T07:43:23;100848.34;;;5.01;53.57
4705;BME280;2366;51.332;6.610;2023-12-04T07:45:48;100848.22;;;4.79;53.63
4705;BME280;2366;51.332;6.610;2023-12-04T07:48:14;100836.22;;;4.97;52.96
4705;BME280;2366;51.332;6.610;2023-12-04T07:50:39;100836.72;;;4.31;53.76
4705;BME280;2366;51.332;6.610;2023-12-04T07:53:05;100839.38;;;4.57;53.42
4705;BME280;2366;51.332;6.610;2023-12-04T07:55:30;100840.09;;;5.10;53.54
4705;BME280;2366;51.332;6.610;2023-12-04T07:57:56;100842.44;;;5.18;53.02
4705;BME280;2366;51.332;6.610;2023-12-04T08:00:21;100843.03;;;4.78;53.32
4705;BME280;2366;51.332;6.610;2023-12-04T08:02:48;100843.06;;;4.76;52.83
4705;BME280;2366;51.332;6.610;2023-12-04T08:05:14;100841.19;;;4.55;53.28
4705;BME280;2366;51.332;6.610;2023-12-04T08:07:40;100831.00;;;4.45;53.41
4705;BME280;2366;51.332;6.610;2023-12-04T08:10:06;100824.66;;;4.78;53.22
4705;BME280;2366;51.332;6.610;2023-12-04T08:12:32;100825.31;;;5.08;52.35
4705;BME280;2366;51.332;6.610;2023-12-04T08:14:59;100815.00;;;5.02;51.75
4705;BME280;2366;51.332;6.610;2023-12-04T08:17:24;100823.03;;;4.73;52.50
4705;BME280;2366;51.332;6.610;2023-12-04T08:19:49;100827.47;;;4.97;52.13
4705;BME280;2366;51.332;6.610;2023-12-04T08:22:15;100821.47;;;5.40;51.81
4705;BME280;2366;51.332;6.610;2023-12-04T08:24:40;100825.94;;;5.14;51.35
4705;BME280;2366;51.332;6.610;2023-12-04T08:27:05;100809.75;;;5.49;50.36
4705;BME280;2366;51.332;6.610;2023-12-04T08:29:31;100805.81;;;5.37;51.21
4705;BME280;2366;51.332;6.610;2023-12-04T08:31:56;100808.78;;;5.04;51.47
4705;BME280;2366;51.332;6.610;2023-12-04T08:34:22;100800.50;;;5.15;51.60
4705;BME280;2366;51.332;6.610;2023-12-04T08:36:47;100800.56;;;5.13;51.20
4705;BME280;2366;51.332;6.610;2023-12-04T08:39:13;100792.25;;;5.48;51.28
4705;BME280;2366;51.332;6.610;2023-12-04T08:41:38;100781.78;;;5.46;50.49
4705;BME280;2366;51.332;6.610;2023-12-04T08:44:04;100781.47;;;5.32;50.48
4705;BME280;2366;51.332;6.610;2023-12-04T08:46:29;100776.19;;;5.10;50.81
4705;BME280;2366;51.332;6.610;2023-12-04T08:48:54;100778.78;;;5.33;50.51
4705;BME280;2366;51.332;6.610;2023-12-04T08:51:20;100775.38;;;5.31;50.14
4705;BME280;2366;51.332;6.610;2023-12-04T08:53:45;100779.75;;;5.53;49.20
4705;BME280;2366;51.332;6.610;2023-12-04T08:56:11;100790.03;;;5.59;49.20
4705;BME280;2366;51.332;6.610;2023-12-04T08:58:37;100784.34;;;5.92;48.71
4705;BME280;2366;51.332;6.610;2023-12-04T09:01:02;100782.09;;;5.83;48.33
4705;BME280;2366;51.332;6.610;2023-12-04T09:03:29;100779.66;;;6.00;48.06
4705;BME280;2366;51.332;6.610;2023-12-04T09:05:56;100764.84;;;5.53;47.85
4705;BME280;2366;51.332;6.610;2023-12-04T09:08:23;100764.25;;;5.69;48.19
4705;BME280;2366;51.332;6.610;2023-12-04T09:10:48;100750.81;;;5.53;48.47
4705;BME280;2366;51.332;6.610;2023-12-04T09:13:14;100758.06;;;5.48;48.62
4705;BME280;2366;51.332;6.610;2023-12-04T09:15:40;100752.00;;;5.68;48.55
4705;BME280;2366;51.332;6.610;2023-12-04T09:18:05;100739.28;;;5.57;48.16
4705;BME280;2366;51.332;6.610;2023-12-04T09:20:31;100751.16;;;5.67;48.19
4705;BME280;2366;51.332;6.610;2023-12-04T09:22:57;100745.38;;;6.02;47.49
4705;BME280;2366;51.332;6.610;2023-12-04T09:25:23;100741.59;;;5.87;47.63
4705;BME280;2366;51.332;6.610;2023-12-04T09:27:48;100751.38;;;5.61;47.71
4705;BME280;2366;51.332;6.610;2023-12-04T09:30:14;100742.22;;;5.49;47.59
4705;BME280;2366;51.332;6.610;2023-12-04T09:32:39;100736.97;;;5.27;48.31
4705;BME280;2366;51.332;6.610;2023-12-04T09:35:05;100731.75;;;5.70;48.06
4705;BME280;2366;51.332;6.610;2023-12-04T09:37:31;100730.59;;;5.99;47.39
4705;BME280;2366;51.332;6.610;2023-12-04T09:39:56;100729.00;;;5.95;46.81
4705;BME280;2366;51.332;6.610;2023-12-04T09:42:21;100726.03;;;5.81;46.54
4705;BME280;2366;51.332;6.610;2023-12-04T09:44:48;100710.72;;;6.12;47.12
4705;BME280;2366;51.332;6.610;2023-12-04T09:47:20;100719.25;;;5.97;46.51
4705;BME280;2366;51.332;6.610;2023-12-04T09:49:47;100713.56;;;6.08;46.69
4705;BME280;2366;51.332;6.610;2023-12-04T09:52:14;100707.81;;;5.76;47.10
4705;BME280;2366;51.332;6.610;2023-12-04T09:54:41;100705.25;;;5.96;46.91
4705;BME280;2366;51.332;6.610;2023-12-04T09:57:07;100704.28;;;5.55;47.75
4705;BME280;2366;51.332;6.610;2023-12-04T09:59:33;100694.72;;;5.74;47.03
4705;BME280;2366;51.332;6.610;2023-12-04T10:02:01;100700.50;;;5.62;48.25
4705;BME280;2366;51.332;6.610;2023-12-04T10:04:26;100682.69;;;5.89;47.16
4705;BME280;2366;51.332;6.610;2023-12-04T10:06:52;100682.16;;;6.03;47.16
4705;BME280;2366;51.332;6.610;2023-12-04T10:09:20;100679.56;;;6.22;46.88
4705;BME280;2366;51.332;6.610;2023-12-04T10:11:48;100675.94;;;6.45;45.97
4705;BME280;2366;51.332;6.610;2023-12-04T10:14:20;100675.28;;;6.20;46.89
4705;BME280;2366;51.332;6.610;2023-12-04T10:16:46;100668.66;;;6.11;46.89
4705;BME280;2366;51.332;6.610;2023-12-04T10:21:42;100660.44;;;6.19;46.77
4705;BME280;2366;51.332;6.610;2023-12-04T10:24:07;100657.13;;;6.13;46.88
4705;BME280;2366;51.332;6.610;2023-12-04T10:26:33;100653.47;;;5.97;47.17
4705;BME280;2366;51.332;6.610;2023-12-04T10:29:00;100640.94;;;6.23;46.69
4705;BME280;2366;51.332;6.610;2023-12-04T10:31:26;100644.75;;;6.36;47.29
4705;BME280;2366;51.332;6.610;2023-12-04T10:33:52;100642.84;;;6.19;47.52
4705;BME280;2366;51.332;6.610;2023-12-04T10:36:17;100642.81;;;6.40;47.28
4705;BME280;2366;51.332;6.610;2023-12-04T10:38:44;100637.44;;;6.22;47.72
4705;BME280;2366;51.332;6.610;2023-12-04T10:41:13;100636.19;;;6.31;47.16
4705;BME280;2366;51.332;6.610;2023-12-04T10:43:46;100642.03;;;5.55;47.79
4705;BME280;2366;51.332;6.610;2023-12-04T10:46:14;100632.91;;;5.85;47.86
4705;BME280;2366;51.332;6.610;2023-12-04T10:48:42;100639.31;;;5.57;48.08
4705;BME280;2366;51.332;6.610;2023-12-04T10:51:08;100620.75;;;6.03;47.47
4705;BME280;2366;51.332;6.610;2023-12-04T10:53:34;100621.44;;;5.65;48.22
4705;BME280;2366;51.332;6.610;2023-12-04T10:56:01;100617.72;;;6.12;48.12
4705;BME280;2366;51.332;6.610;2023-12-04T10:58:28;100618.56;;;5.51;48.59
4705;BME280;2366;51.332;6.610;2023-12-04T11:00:54;100607.69;;;6.01;48.41
4705;BME280;2366;51.332;6.610;2023-12-04T11:03:34;100612.06;;;6.01;48.29
4705;BME280;2366;51.332;6.610;2023-12-04T11:06:01;100609.22;;;5.85;48.76
4705;BME280;2366;51.332;6.610;2023-12-04T11:08:33;100603.16;;;6.24;48.10
4705;BME280;2366;51.332;6.610;2023-12-04T11:11:01;100605.84;;;6.03;48.46
4705;BME280;2366;51.332;6.610;2023-12-04T11:13:35;100592.88;;;6.38;47.04
4705;BME280;2366;51.332;6.610;2023-12-04T11:16:09;100600.78;;;5.76;48.10
4705;BME280;2366;51.332;6.610;2023-12-04T11:18:40;100595.16;;;6.06;48.60
4705;BME280;2366;51.332;6.610;2023-12-04T11:21:10;100591.94;;;6.00;48.64
4705;BME280;2366;51.332;6.610;2023-12-04T11:23:37;100598.03;;;5.59;50.06
4705;BME280;2366;51.332;6.610;2023-12-04T11:26:04;100596.28;;;5.60;50.25
4705;BME280;2366;51.332;6.610;2023-12-04T11:28:31;100585.34;;;5.69;50.30
4705;BME280;2366;51.332;6.610;2023-12-04T11:30:57;100579.78;;;5.97;50.49
4705;BME280;2366;51.332;6.610;2023-12-04T11:33:23;100575.81;;;6.07;50.81
4705;BME280;2366;51.332;6.610;2023-12-04T11:35:50;100577.97;;;6.37;50.54
4705;BME280;2366;51.332;6.610;2023-12-04T11:38:17;100587.59;;;5.78;52.29
4705;BME280;2366;51.332;6.610;2023-12-04T11:40:42;100586.69;;;6.00;51.63
4705;BME280;2366;51.332;6.610;2023-12-04T11:43:27;100581.19;;;5.63;53.64
4705;BME280;2366;51.332;6.610;2023-12-04T11:46:07;100583.44;;;5.52;54.60
4705;BME280;2366;51.332;6.610;2023-12-04T11:48:33;100579.34;;;5.65;55.03
4705;BME280;2366;51.332;6.610;2023-12-04T11:51:00;100577.78;;;6.02;55.01
4705;BME280;2366;51.332;6.610;2023-12-04T11:53:25;100572.09;;;6.11;55.15
4705;BME280;2366;51.332;6.610;2023-12-04T11:55:55;100566.63;;;5.97;55.43
4705;BME280;2366;51.332;6.610;2023-12-04T11:58:22;100570.72;;;6.42;55.41
4705;BME280;2366;51.332;6.610;2023-12-04T12:00:47;100562.63;;;5.87;56.45
4705;BME280;2366;51.332;6.610;2023-12-04T12:03:14;100554.47;;;5.72;56.93
4705;BME280;2366;51.332;6.610;2023-12-04T12:05:40;100553.06;;;6.25;56.09
4705;BME280;2366;51.332;6.610;2023-12-04T12:08:07;100542.88;;;6.17;56.22
4705;BME280;2366;51.332;6.610;2023-12-04T12:10:34;100528.19;;;5.72;57.17
4705;BME280;2366;51.332;6.610;2023-12-04T12:13:00;100528.06;;;5.55;58.43
4705;BME280;2366;51.332;6.610;2023-12-04T12:15:27;100528.78;;;6.00;57.29
4705;BME280;2366;51.332;6.610;2023-12-04T12:17:53;100523.75;;;6.14;57.73
4705;BME280;2366;51.332;6.610;2023-12-04T12:20:19;100515.78;;;5.55;58.46
4705;BME280;2366;51.332;6.610;2023-12-04T12:22:46;100505.28;;;5.55;58.59
4705;BME280;2366;51.332;6.610;2023-12-04T12:25:13;100505.66;;;6.06;57.86
4705;BME280;2366;51.332;6.610;2023-12-04T12:27:39;100500.91;;;6.14;57.81
4705;BME280;2366;51.332;6.610;2023-12-04T12:30:05;100493.22;;;5.70;58.79
4705;BME280;2366;51.332;6.610;2023-12-04T12:32:32;100493.44;;;5.45;59.86
4705;BME280;2366;51.332;6.610;2023-12-04T12:34:57;100489.22;;;5.81;59.65
4705;BME280;2366;51.332;6.610;2023-12-04T12:37:23;100486.91;;;5.93;59.67
4705;BME280;2366;51.332;6.610;2023-12-04T12:39:48;100477.91;;;5.60;60.87
4705;BME280;2366;51.332;6.610;2023-12-04T12:42:28;100475.19;;;5.61;61.09
4705;BME280;2366;51.332;6.610;2023-12-04T12:44:55;100470.13;;;5.56;61.95
4705;BME280;2366;51.332;6.610;2023-12-04T12:47:21;100468.22;;;5.21;63.07
4705;BME280;2366;51.332;6.610;2023-12-04T12:49:47;100463.25;;;5.13;63.89
4705;BME280;2366;51.332;6.610;2023-12-04T12:52:13;100459.34;;;5.63;63.17
4705;BME280;2366;51.332;6.610;2023-12-04T12:54:43;100452.94;;;5.49;63.53
4705;BME280;2366;51.332;6.610;2023-12-04T12:57:09;100454.50;;;5.53;63.88
4705;BME280;2366;51.332;6.610;2023-12-04T12:59:38;100433.78;;;5.66;62.89
4705;BME280;2366;51.332;6.610;2023-12-04T13:02:04;100440.31;;;5.76;63.01
4705;BME280;2366;51.332;6.610;2023-12-04T13:04:36;100424.59;;;5.56;63.33
4705;BME280;2366;51.332;6.610;2023-12-04T13:07:02;100426.25;;;5.78;63.08
4705;BME280;2366;51.332;6.610;2023-12-04T13:09:29;100433.69;;;5.87;63.26
4705;BME280;2366;51.332;6.610;2023-12-04T13:11:54;100424.47;;;5.39;63.85
4705;BME280;2366;51.332;6.610;2023-12-04T13:14:20;100422.31;;;5.07;65.67
4705;BME280;2366;51.332;6.610;2023-12-04T13:16:46;100405.44;;;5.33;65.58
4705;BME280;2366;51.332;6.610;2023-12-04T13:19:11;100406.50;;;5.29;65.46